Minas Novas, Brazil
Current Conditions -  °F | °C
As of 8:00 PM on Sunday 25 Jan 2015 (Local Time) from SBMK Reporting Station
Few Clouds Few Clouds  
Wind Chill: 82°   Ceiling: Unl
Heat Index: 82°   Visibility: 6mi
Dew Point: 52°   Wind: 8mph
Humidity: 35%   Direction: 80°E
Pressure: 29.97"   Gusts: NA
Location:  17.25°S, 42.6°W
Report Text: SBMK 252200Z 08007KT 9999 FEW050TCU 28/11 Q1015
Loading
Personal Weather Stations






























Interactive Weather Map New forecast layout! Learn more

10-Day Weather Forecast

Advertisements
Track Severe Weather on mobile